Terminal Aerodrome Forecast
Issued by NWS

Home | Current Version | Previous Version | Text Only | Print | Product List | Glossary On
Versions: 1 2 3 4 5 6 7 8 9 10 11 12 13 14
000
FTUS45 KBOI 232336
TAFTWF
TAF
KTWF 232336Z 2400/2424 19010G20KT P6SM VCSH BKN070 OVC100
     FM240400 21015G25KT P6SM OVC080
     FM241200 23017G26KT P6SM VCSH OVC050
     FM241500 25020G30KT P6SM -RA OVC040
     FM241900 26015G25KT P6SM SCT040 BKN100=

USA.gov is the U.S. government's official web portal to all federal, state and local government web resources and services.